sensor_id;sensor_type;location;lat;lon;timestamp;temperature;humidity
69335;SHT31;56477;52.742;15.242;2024-03-29T00:02:04;7.60;79.67
69335;SHT31;56477;52.742;15.242;2024-03-29T00:04:29;7.55;80.00
69335;SHT31;56477;52.742;15.242;2024-03-29T00:06:55;7.57;79.76
69335;SHT31;56477;52.742;15.242;2024-03-29T00:09:21;7.55;79.81
69335;SHT31;56477;52.742;15.242;2024-03-29T00:11:47;7.54;79.93
69335;SHT31;56477;52.742;15.242;2024-03-29T00:14:13;7.53;79.91
69335;SHT31;56477;52.742;15.242;2024-03-29T00:16:39;7.50;80.10
69335;SHT31;56477;52.742;15.242;2024-03-29T00:19:04;7.46;80.09
69335;SHT31;56477;52.742;15.242;2024-03-29T00:21:30;7.48;80.13
69335;SHT31;56477;52.742;15.242;2024-03-29T00:23:56;7.53;79.92
69335;SHT31;56477;52.742;15.242;2024-03-29T00:26:22;7.51;79.89
69335;SHT31;56477;52.742;15.242;2024-03-29T00:28:48;7.50;79.83
69335;SHT31;56477;52.742;15.242;2024-03-29T00:31:14;7.51;79.65
69335;SHT31;56477;52.742;15.242;2024-03-29T00:33:39;7.54;79.75
69335;SHT31;56477;52.742;15.242;2024-03-29T00:36:06;7.57;79.56
69335;SHT31;56477;52.742;15.242;2024-03-29T00:38:31;7.61;79.52
69335;SHT31;56477;52.742;15.242;2024-03-29T00:40:57;7.58;79.81
69335;SHT31;56477;52.742;15.242;2024-03-29T00:43:23;7.54;80.09
69335;SHT31;56477;52.742;15.242;2024-03-29T00:45:49;7.54;79.95
69335;SHT31;56477;52.742;15.242;2024-03-29T00:48:15;7.55;80.00
69335;SHT31;56477;52.742;15.242;2024-03-29T00:50:43;7.58;80.07
69335;SHT31;56477;52.742;15.242;2024-03-29T00:53:08;7.55;80.11
69335;SHT31;56477;52.742;15.242;2024-03-29T00:55:34;7.61;80.09
69335;SHT31;56477;52.742;15.242;2024-03-29T00:58:00;7.61;79.93
69335;SHT31;56477;52.742;15.242;2024-03-29T01:00:26;7.57;80.05
69335;SHT31;56477;52.742;15.242;2024-03-29T01:02:52;7.57;80.08
69335;SHT31;56477;52.742;15.242;2024-03-29T01:05:18;7.53;80.15
69335;SHT31;56477;52.742;15.242;2024-03-29T01:07:44;7.57;80.04
69335;SHT31;56477;52.742;15.242;2024-03-29T01:10:10;7.57;79.91
69335;SHT31;56477;52.742;15.242;2024-03-29T01:12:36;7.54;80.20
69335;SHT31;56477;52.742;15.242;2024-03-29T01:15:02;7.57;80.20
69335;SHT31;56477;52.742;15.242;2024-03-29T01:17:28;7.54;80.43
69335;SHT31;56477;52.742;15.242;2024-03-29T01:19:55;7.50;80.54
69335;SHT31;56477;52.742;15.242;2024-03-29T01:22:21;7.44;80.92
69335;SHT31;56477;52.742;15.242;2024-03-29T01:24:47;7.38;81.15
69335;SHT31;56477;52.742;15.242;2024-03-29T01:27:12;7.37;81.09
69335;SHT31;56477;52.742;15.242;2024-03-29T01:29:38;7.31;81.24
69335;SHT31;56477;52.742;15.242;2024-03-29T01:32:04;7.30;81.27
69335;SHT31;56477;52.742;15.242;2024-03-29T01:34:30;7.36;81.34
69335;SHT31;56477;52.742;15.242;2024-03-29T01:36:56;7.34;81.39
69335;SHT31;56477;52.742;15.242;2024-03-29T01:39:22;7.26;81.60
69335;SHT31;56477;52.742;15.242;2024-03-29T01:41:54;7.30;81.41
69335;SHT31;56477;52.742;15.242;2024-03-29T01:44:20;7.28;81.66
69335;SHT31;56477;52.742;15.242;2024-03-29T01:46:46;7.28;81.66
69335;SHT31;56477;52.742;15.242;2024-03-29T01:49:13;7.26;81.82
69335;SHT31;56477;52.742;15.242;2024-03-29T01:51:39;7.23;81.88
69335;SHT31;56477;52.742;15.242;2024-03-29T01:54:07;7.27;81.84
69335;SHT31;56477;52.742;15.242;2024-03-29T01:56:35;7.24;81.96
69335;SHT31;56477;52.742;15.242;2024-03-29T01:59:03;7.23;82.17
69335;SHT31;56477;52.742;15.242;2024-03-29T02:01:30;7.17;82.28
69335;SHT31;56477;52.742;15.242;2024-03-29T02:03:56;7.20;82.33
69335;SHT31;56477;52.742;15.242;2024-03-29T02:06:22;7.17;82.47
69335;SHT31;56477;52.742;15.242;2024-03-29T02:08:52;7.10;82.87
69335;SHT31;56477;52.742;15.242;2024-03-29T02:11:21;7.12;82.85
69335;SHT31;56477;52.742;15.242;2024-03-29T02:13:50;7.13;83.07
69335;SHT31;56477;52.742;15.242;2024-03-29T02:16:17;7.12;83.11
69335;SHT31;56477;52.742;15.242;2024-03-29T02:18:43;7.10;83.39
69335;SHT31;56477;52.742;15.242;2024-03-29T02:21:09;7.05;83.60
69335;SHT31;56477;52.742;15.242;2024-03-29T02:23:39;7.02;83.76
69335;SHT31;56477;52.742;15.242;2024-03-29T02:26:05;7.03;83.93
69335;SHT31;56477;52.742;15.242;2024-03-29T02:28:31;6.95;84.16
69335;SHT31;56477;52.742;15.242;2024-03-29T02:30:57;6.92;84.27
69335;SHT31;56477;52.742;15.242;2024-03-29T02:33:23;6.95;84.35
69335;SHT31;56477;52.742;15.242;2024-03-29T02:35:49;6.88;84.45
69335;SHT31;56477;52.742;15.242;2024-03-29T02:38:15;6.85;84.73
69335;SHT31;56477;52.742;15.242;2024-03-29T02:40:41;6.78;84.87
69335;SHT31;56477;52.742;15.242;2024-03-29T02:43:07;6.81;85.14
69335;SHT31;56477;52.742;15.242;2024-03-29T02:45:32;6.84;85.00
69335;SHT31;56477;52.742;15.242;2024-03-29T02:47:58;6.75;85.25
69335;SHT31;56477;52.742;15.242;2024-03-29T02:50:24;6.72;85.47
69335;SHT31;56477;52.742;15.242;2024-03-29T02:52:50;6.76;85.67
69335;SHT31;56477;52.742;15.242;2024-03-29T02:55:16;6.74;85.74
69335;SHT31;56477;52.742;15.242;2024-03-29T02:57:42;6.74;85.60
69335;SHT31;56477;52.742;15.242;2024-03-29T03:00:08;6.69;85.91
69335;SHT31;56477;52.742;15.242;2024-03-29T03:02:38;6.65;86.01
69335;SHT31;56477;52.742;15.242;2024-03-29T03:05:05;6.58;86.32
69335;SHT31;56477;52.742;15.242;2024-03-29T03:07:32;6.58;86.42
69335;SHT31;56477;52.742;15.242;2024-03-29T03:10:16;6.59;86.56
69335;SHT31;56477;52.742;15.242;2024-03-29T03:13:01;6.55;86.61
69335;SHT31;56477;52.742;15.242;2024-03-29T03:15:26;6.54;86.70
69335;SHT31;56477;52.742;15.242;2024-03-29T03:17:52;6.52;86.94
69335;SHT31;56477;52.742;15.242;2024-03-29T03:20:18;6.51;86.91
69335;SHT31;56477;52.742;15.242;2024-03-29T03:22:45;6.52;86.84
69335;SHT31;56477;52.742;15.242;2024-03-29T03:25:10;6.54;86.86
69335;SHT31;56477;52.742;15.242;2024-03-29T03:27:36;6.49;86.86
69335;SHT31;56477;52.742;15.242;2024-03-29T03:30:02;6.47;87.06
69335;SHT31;56477;52.742;15.242;2024-03-29T03:32:28;6.44;87.21
69335;SHT31;56477;52.742;15.242;2024-03-29T03:34:54;6.42;87.13
69335;SHT31;56477;52.742;15.242;2024-03-29T03:37:20;6.44;87.34
69335;SHT31;56477;52.742;15.242;2024-03-29T03:39:45;6.44;87.25
69335;SHT31;56477;52.742;15.242;2024-03-29T03:42:11;6.38;87.28
69335;SHT31;56477;52.742;15.242;2024-03-29T03:44:37;6.34;87.63
69335;SHT31;56477;52.742;15.242;2024-03-29T03:47:03;6.31;87.82
69335;SHT31;56477;52.742;15.242;2024-03-29T03:49:29;6.30;87.70
69335;SHT31;56477;52.742;15.242;2024-03-29T03:51:55;6.24;87.95
69335;SHT31;56477;52.742;15.242;2024-03-29T03:54:21;6.17;88.05
69335;SHT31;56477;52.742;15.242;2024-03-29T03:56:47;6.20;88.00
69335;SHT31;56477;52.742;15.242;2024-03-29T03:59:14;6.21;87.89
69335;SHT31;56477;52.742;15.242;2024-03-29T04:01:40;6.21;87.89
69335;SHT31;56477;52.742;15.242;2024-03-29T04:04:06;6.18;87.85
69335;SHT31;56477;52.742;15.242;2024-03-29T04:06:32;6.14;87.91
69335;SHT31;56477;52.742;15.242;2024-03-29T04:08:57;6.11;88.12
69335;SHT31;56477;52.742;15.242;2024-03-29T04:11:23;6.07;88.24
69335;SHT31;56477;52.742;15.242;2024-03-29T04:13:49;6.05;88.42
69335;SHT31;56477;52.742;15.242;2024-03-29T04:16:15;6.06;88.54
69335;SHT31;56477;52.742;15.242;2024-03-29T04:18:41;6.06;88.61
69335;SHT31;56477;52.742;15.242;2024-03-29T04:21:07;6.00;88.66
69335;SHT31;56477;52.742;15.242;2024-03-29T04:23:32;5.96;88.85
69335;SHT31;56477;52.742;15.242;2024-03-29T04:25:59;5.93;89.09
69335;SHT31;56477;52.742;15.242;2024-03-29T04:28:26;5.92;89.25
69335;SHT31;56477;52.742;15.242;2024-03-29T04:30:56;5.87;89.25
69335;SHT31;56477;52.742;15.242;2024-03-29T04:33:22;5.80;89.68
69335;SHT31;56477;52.742;15.242;2024-03-29T04:38:21;5.76;90.08
69335;SHT31;56477;52.742;15.242;2024-03-29T04:40:51;5.68;90.16
69335;SHT31;56477;52.742;15.242;2024-03-29T04:43:16;5.65;90.31
69335;SHT31;56477;52.742;15.242;2024-03-29T04:45:44;5.68;90.50
69335;SHT31;56477;52.742;15.242;2024-03-29T04:48:10;5.62;90.47
69335;SHT31;56477;52.742;15.242;2024-03-29T04:50:36;5.62;90.60
69335;SHT31;56477;52.742;15.242;2024-03-29T04:53:02;5.59;90.64
69335;SHT31;56477;52.742;15.242;2024-03-29T04:55:28;5.55;90.85
69335;SHT31;56477;52.742;15.242;2024-03-29T04:57:54;5.56;90.91
69335;SHT31;56477;52.742;15.242;2024-03-29T05:00:20;5.56;90.91
69335;SHT31;56477;52.742;15.242;2024-03-29T05:02:46;5.56;90.92
69335;SHT31;56477;52.742;15.242;2024-03-29T05:05:12;5.54;90.91
69335;SHT31;56477;52.742;15.242;2024-03-29T05:07:37;5.55;91.07
69335;SHT31;56477;52.742;15.242;2024-03-29T05:10:04;5.54;91.02
69335;SHT31;56477;52.742;15.242;2024-03-29T05:12:32;5.54;90.92
69335;SHT31;56477;52.742;15.242;2024-03-29T05:14:58;5.59;90.76
69335;SHT31;56477;52.742;15.242;2024-03-29T05:17:24;5.62;90.61
69335;SHT31;56477;52.742;15.242;2024-03-29T05:19:53;5.69;90.35
69335;SHT31;56477;52.742;15.242;2024-03-29T05:22:19;5.75;89.97
69335;SHT31;56477;52.742;15.242;2024-03-29T05:24:45;5.82;89.61
69335;SHT31;56477;52.742;15.242;2024-03-29T05:27:12;5.86;89.42
69335;SHT31;56477;52.742;15.242;2024-03-29T05:29:38;5.90;89.24
69335;SHT31;56477;52.742;15.242;2024-03-29T05:32:05;5.96;88.90
69335;SHT31;56477;52.742;15.242;2024-03-29T05:34:31;5.99;88.81
69335;SHT31;56477;52.742;15.242;2024-03-29T05:36:57;6.09;88.71
69335;SHT31;56477;52.742;15.242;2024-03-29T05:39:23;6.14;88.30
69335;SHT31;56477;52.742;15.242;2024-03-29T05:41:48;6.16;88.47
69335;SHT31;56477;52.742;15.242;2024-03-29T05:44:14;6.23;88.05
69335;SHT31;56477;52.742;15.242;2024-03-29T05:46:40;6.24;87.80
69335;SHT31;56477;52.742;15.242;2024-03-29T05:49:07;6.27;87.63
69335;SHT31;56477;52.742;15.242;2024-03-29T05:51:32;6.30;87.48
69335;SHT31;56477;52.742;15.242;2024-03-29T05:54:00;6.24;87.66
69335;SHT31;56477;52.742;15.242;2024-03-29T05:56:26;6.35;87.22
69335;SHT31;56477;52.742;15.242;2024-03-29T05:58:52;6.33;87.57
69335;SHT31;56477;52.742;15.242;2024-03-29T06:01:17;6.35;87.14
69335;SHT31;56477;52.742;15.242;2024-03-29T06:03:43;6.44;87.05
69335;SHT31;56477;52.742;15.242;2024-03-29T06:06:09;6.55;86.72
69335;SHT31;56477;52.742;15.242;2024-03-29T06:08:46;6.64;86.42
69335;SHT31;56477;52.742;15.242;2024-03-29T06:11:11;6.74;85.85
69335;SHT31;56477;52.742;15.242;2024-03-29T06:13:37;6.71;85.64
69335;SHT31;56477;52.742;15.242;2024-03-29T06:16:19;6.81;85.32
69335;SHT31;56477;52.742;15.242;2024-03-29T06:19:04;6.96;84.95
69335;SHT31;56477;52.742;15.242;2024-03-29T06:21:30;7.05;84.34
69335;SHT31;56477;52.742;15.242;2024-03-29T06:24:11;7.14;84.17
69335;SHT31;56477;52.742;15.242;2024-03-29T06:26:38;7.27;83.57
69335;SHT31;56477;52.742;15.242;2024-03-29T06:29:04;7.34;83.60
69335;SHT31;56477;52.742;15.242;2024-03-29T06:31:30;7.40;83.25
69335;SHT31;56477;52.742;15.242;2024-03-29T06:33:57;7.44;82.86
69335;SHT31;56477;52.742;15.242;2024-03-29T06:36:23;7.47;82.98
69335;SHT31;56477;52.742;15.242;2024-03-29T06:38:49;7.50;83.05
69335;SHT31;56477;52.742;15.242;2024-03-29T06:41:15;7.61;82.52
69335;SHT31;56477;52.742;15.242;2024-03-29T06:43:42;7.55;82.80
69335;SHT31;56477;52.742;15.242;2024-03-29T06:46:14;7.63;83.07
69335;SHT31;56477;52.742;15.242;2024-03-29T06:48:41;7.67;82.83
69335;SHT31;56477;52.742;15.242;2024-03-29T06:51:06;7.74;81.95
69335;SHT31;56477;52.742;15.242;2024-03-29T06:53:32;7.70;81.77
69335;SHT31;56477;52.742;15.242;2024-03-29T06:56:00;7.88;81.55
69335;SHT31;56477;52.742;15.242;2024-03-29T06:58:27;7.95;81.43
69335;SHT31;56477;52.742;15.242;2024-03-29T07:00:53;7.99;80.63
69335;SHT31;56477;52.742;15.242;2024-03-29T07:03:18;8.06;80.80
69335;SHT31;56477;52.742;15.242;2024-03-29T07:05:45;8.17;80.36
69335;SHT31;56477;52.742;15.242;2024-03-29T07:08:11;8.19;80.03
69335;SHT31;56477;52.742;15.242;2024-03-29T07:10:37;8.28;80.17
69335;SHT31;56477;52.742;15.242;2024-03-29T07:13:03;8.37;79.76
69335;SHT31;56477;52.742;15.242;2024-03-29T07:15:29;8.39;79.64
69335;SHT31;56477;52.742;15.242;2024-03-29T07:17:55;8.49;79.98
69335;SHT31;56477;52.742;15.242;2024-03-29T07:20:22;8.61;79.39
69335;SHT31;56477;52.742;15.242;2024-03-29T07:22:48;8.77;79.03
69335;SHT31;56477;52.742;15.242;2024-03-29T07:25:13;8.88;78.81
69335;SHT31;56477;52.742;15.242;2024-03-29T07:27:39;9.11;77.70
69335;SHT31;56477;52.742;15.242;2024-03-29T07:30:07;9.26;76.65
69335;SHT31;56477;52.742;15.242;2024-03-29T07:32:37;9.50;76.13
69335;SHT31;56477;52.742;15.242;2024-03-29T07:35:03;9.77;75.46
69335;SHT31;56477;52.742;15.242;2024-03-29T07:37:29;10.04;73.98
69335;SHT31;56477;52.742;15.242;2024-03-29T07:39:55;10.52;72.45
69335;SHT31;56477;52.742;15.242;2024-03-29T07:42:21;10.66;71.64
69335;SHT31;56477;52.742;15.242;2024-03-29T07:44:47;11.01;70.93
69335;SHT31;56477;52.742;15.242;2024-03-29T07:47:13;11.45;69.58
69335;SHT31;56477;52.742;15.242;2024-03-29T07:49:41;11.38;69.14
69335;SHT31;56477;52.742;15.242;2024-03-29T07:52:07;11.64;67.74
69335;SHT31;56477;52.742;15.242;2024-03-29T07:54:34;11.79;67.45
69335;SHT31;56477;52.742;15.242;2024-03-29T07:57:00;11.97;66.36
69335;SHT31;56477;52.742;15.242;2024-03-29T07:59:27;11.83;66.45
69335;SHT31;56477;52.742;15.242;2024-03-29T08:01:53;11.74;66.41
69335;SHT31;56477;52.742;15.242;2024-03-29T08:04:20;11.78;66.58
69335;SHT31;56477;52.742;15.242;2024-03-29T08:06:46;11.90;67.11
69335;SHT31;56477;52.742;15.242;2024-03-29T08:09:12;11.61;66.80
69335;SHT31;56477;52.742;15.242;2024-03-29T08:11:40;11.68;67.12
69335;SHT31;56477;52.742;15.242;2024-03-29T08:14:06;11.41;67.25
69335;SHT31;56477;52.742;15.242;2024-03-29T08:16:32;11.58;67.03
69335;SHT31;56477;52.742;15.242;2024-03-29T08:18:57;11.58;67.03
69335;SHT31;56477;52.742;15.242;2024-03-29T08:21:24;11.71;66.74
69335;SHT31;56477;52.742;15.242;2024-03-29T08:23:53;11.85;66.77
69335;SHT31;56477;52.742;15.242;2024-03-29T08:26:21;11.81;66.55
69335;SHT31;56477;52.742;15.242;2024-03-29T08:28:47;11.97;66.13
69335;SHT31;56477;52.742;15.242;2024-03-29T08:31:13;12.34;64.50
69335;SHT31;56477;52.742;15.242;2024-03-29T08:33:39;12.52;63.88
69335;SHT31;56477;52.742;15.242;2024-03-29T08:36:06;12.47;63.34
69335;SHT31;56477;52.742;15.242;2024-03-29T08:38:34;12.62;63.46
69335;SHT31;56477;52.742;15.242;2024-03-29T08:41:00;12.69;63.17
69335;SHT31;56477;52.742;15.242;2024-03-29T08:43:26;12.88;62.90
69335;SHT31;56477;52.742;15.242;2024-03-29T08:45:52;13.32;61.62
69335;SHT31;56477;52.742;15.242;2024-03-29T08:48:18;13.75;61.00
69335;SHT31;56477;52.742;15.242;2024-03-29T08:50:44;14.45;57.87
69335;SHT31;56477;52.742;15.242;2024-03-29T08:53:10;14.63;57.64
69335;SHT31;56477;52.742;15.242;2024-03-29T08:55:36;15.41;56.17
69335;SHT31;56477;52.742;15.242;2024-03-29T08:58:06;15.86;54.10
69335;SHT31;56477;52.742;15.242;2024-03-29T09:00:32;15.59;54.80
69335;SHT31;56477;52.742;15.242;2024-03-29T09:02:57;16.23;53.33
69335;SHT31;56477;52.742;15.242;2024-03-29T09:05:24;16.72;52.19
69335;SHT31;56477;52.742;15.242;2024-03-29T09:07:50;17.22;49.87
69335;SHT31;56477;52.742;15.242;2024-03-29T09:10:17;17.26;51.29
69335;SHT31;56477;52.742;15.242;2024-03-29T09:12:43;17.97;48.54
69335;SHT31;56477;52.742;15.242;2024-03-29T09:15:09;17.89;48.84
69335;SHT31;56477;52.742;15.242;2024-03-29T09:17:39;17.57;48.90
69335;SHT31;56477;52.742;15.242;2024-03-29T09:20:06;17.37;48.58
69335;SHT31;56477;52.742;15.242;2024-03-29T09:22:32;17.47;49.53
69335;SHT31;56477;52.742;15.242;2024-03-29T09:24:58;17.70;49.81
69335;SHT31;56477;52.742;15.242;2024-03-29T09:27:24;17.33;49.68
69335;SHT31;56477;52.742;15.242;2024-03-29T09:29:50;18.22;48.60
69335;SHT31;56477;52.742;15.242;2024-03-29T09:32:16;17.91;48.32
69335;SHT31;56477;52.742;15.242;2024-03-29T09:34:43;18.32;47.53
69335;SHT31;56477;52.742;15.242;2024-03-29T09:37:10;18.57;48.04
69335;SHT31;56477;52.742;15.242;2024-03-29T09:39:36;17.26;48.28
69335;SHT31;56477;52.742;15.242;2024-03-29T09:42:06;17.94;47.63
69335;SHT31;56477;52.742;15.242;2024-03-29T09:44:34;17.40;48.88
69335;SHT31;56477;52.742;15.242;2024-03-29T09:47:05;16.12;50.00
69335;SHT31;56477;52.742;15.242;2024-03-29T09:49:32;15.67;51.95
69335;SHT31;56477;52.742;15.242;2024-03-29T09:51:59;15.39;52.97
69335;SHT31;56477;52.742;15.242;2024-03-29T09:54:28;14.97;53.74
69335;SHT31;56477;52.742;15.242;2024-03-29T09:56:57;14.38;55.18
69335;SHT31;56477;52.742;15.242;2024-03-29T09:59:24;14.35;55.93
69335;SHT31;56477;52.742;15.242;2024-03-29T10:01:54;14.21;56.26
69335;SHT31;56477;52.742;15.242;2024-03-29T10:04:23;14.22;56.47
69335;SHT31;56477;52.742;15.242;2024-03-29T10:06:50;14.04;56.72
69335;SHT31;56477;52.742;15.242;2024-03-29T10:09:21;14.29;55.48
69335;SHT31;56477;52.742;15.242;2024-03-29T10:11:47;14.49;56.56
69335;SHT31;56477;52.742;15.242;2024-03-29T10:14:14;14.65;55.51
69335;SHT31;56477;52.742;15.242;2024-03-29T10:16:39;14.50;55.15
69335;SHT31;56477;52.742;15.242;2024-03-29T10:19:07;14.22;55.48
69335;SHT31;56477;52.742;15.242;2024-03-29T10:21:33;14.52;55.47
69335;SHT31;56477;52.742;15.242;2024-03-29T10:24:14;14.53;55.65
69335;SHT31;56477;52.742;15.242;2024-03-29T10:26:42;14.70;55.21
69335;SHT31;56477;52.742;15.242;2024-03-29T10:29:08;14.63;55.51
69335;SHT31;56477;52.742;15.242;2024-03-29T10:31:35;14.45;56.18
69335;SHT31;56477;52.742;15.242;2024-03-29T10:34:06;14.70;55.07
69335;SHT31;56477;52.742;15.242;2024-03-29T10:36:34;14.87;55.45
69335;SHT31;56477;52.742;15.242;2024-03-29T10:39:10;14.81;53.91
69335;SHT31;56477;52.742;15.242;2024-03-29T10:41:40;14.91;54.36
69335;SHT31;56477;52.742;15.242;2024-03-29T10:44:09;15.07;54.71
69335;SHT31;56477;52.742;15.242;2024-03-29T10:46:36;15.03;54.50
69335;SHT31;56477;52.742;15.242;2024-03-29T10:49:06;14.98;53.40
69335;SHT31;56477;52.742;15.242;2024-03-29T10:51:33;15.11;52.99
69335;SHT31;56477;52.742;15.242;2024-03-29T10:54:00;15.28;53.11
69335;SHT31;56477;52.742;15.242;2024-03-29T10:56:27;15.44;51.83
69335;SHT31;56477;52.742;15.242;2024-03-29T10:58:56;15.51;53.18
69335;SHT31;56477;52.742;15.242;2024-03-29T11:01:26;15.66;51.89
69335;SHT31;56477;52.742;15.242;2024-03-29T11:04:09;15.45;52.81
69335;SHT31;56477;52.742;15.242;2024-03-29T11:06:36;15.67;51.43
69335;SHT31;56477;52.742;15.242;2024-03-29T11:09:05;15.52;51.44
69335;SHT31;56477;52.742;15.242;2024-03-29T11:11:32;15.46;52.60
69335;SHT31;56477;52.742;15.242;2024-03-29T11:14:03;15.83;52.32
69335;SHT31;56477;52.742;15.242;2024-03-29T11:16:33;16.17;50.49
69335;SHT31;56477;52.742;15.242;2024-03-29T11:19:00;16.10;49.60
69335;SHT31;56477;52.742;15.242;2024-03-29T11:21:30;15.89;49.26
69335;SHT31;56477;52.742;15.242;2024-03-29T11:23:58;16.10;48.57
69335;SHT31;56477;52.742;15.242;2024-03-29T11:26:27;15.96;48.68
69335;SHT31;56477;52.742;15.242;2024-03-29T11:28:53;16.18;47.84
69335;SHT31;56477;52.742;15.242;2024-03-29T11:31:24;16.20;47.92
69335;SHT31;56477;52.742;15.242;2024-03-29T11:33:51;16.17;48.73
69335;SHT31;56477;52.742;15.242;2024-03-29T11:36:21;16.76;47.64
69335;SHT31;56477;52.742;15.242;2024-03-29T11:38:53;16.83;47.19
69335;SHT31;56477;52.742;15.242;2024-03-29T11:41:26;16.73;46.84
69335;SHT31;56477;52.742;15.242;2024-03-29T11:43:54;16.71;47.28
69335;SHT31;56477;52.742;15.242;2024-03-29T11:46:20;16.67;47.66
69335;SHT31;56477;52.742;15.242;2024-03-29T11:48:47;16.65;48.36
69335;SHT31;56477;52.742;15.242;2024-03-29T11:51:16;16.13;49.34
69335;SHT31;56477;52.742;15.242;2024-03-29T11:53:44;15.89;50.03
69335;SHT31;56477;52.742;15.242;2024-03-29T11:56:10;15.83;50.62
69335;SHT31;56477;52.742;15.242;2024-03-29T11:58:40;15.73;49.42
69335;SHT31;56477;52.742;15.242;2024-03-29T12:01:06;15.67;50.28
69335;SHT31;56477;52.742;15.242;2024-03-29T12:03:38;15.41;50.40
69335;SHT31;56477;52.742;15.242;2024-03-29T12:06:05;15.32;51.12
69335;SHT31;56477;52.742;15.242;2024-03-29T12:08:34;15.17;51.41
69335;SHT31;56477;52.742;15.242;2024-03-29T12:11:02;15.10;50.87
69335;SHT31;56477;52.742;15.242;2024-03-29T12:13:29;15.03;50.90
69335;SHT31;56477;52.742;15.242;2024-03-29T12:15:55;15.07;51.40
69335;SHT31;56477;52.742;15.242;2024-03-29T12:18:23;15.05;51.10
69335;SHT31;56477;52.742;15.242;2024-03-29T12:20:50;15.03;52.24
69335;SHT31;56477;52.742;15.242;2024-03-29T12:23:18;15.03;51.95
69335;SHT31;56477;52.742;15.242;2024-03-29T12:25:44;15.05;52.59
69335;SHT31;56477;52.742;15.242;2024-03-29T12:28:11;15.10;52.13
69335;SHT31;56477;52.742;15.242;2024-03-29T12:30:42;15.08;52.62
69335;SHT31;56477;52.742;15.242;2024-03-29T12:33:12;15.14;52.26
69335;SHT31;56477;52.742;15.242;2024-03-29T12:35:41;15.17;52.15
69335;SHT31;56477;52.742;15.242;2024-03-29T12:38:11;15.18;52.16
69335;SHT31;56477;52.742;15.242;2024-03-29T12:40:37;15.25;52.57
69335;SHT31;56477;52.742;15.242;2024-03-29T12:43:07;15.23;51.94
69335;SHT31;56477;52.742;15.242;2024-03-29T12:45:36;15.17;51.45
69335;SHT31;56477;52.742;15.242;2024-03-29T12:48:02;15.05;50.70
69335;SHT31;56477;52.742;15.242;2024-03-29T12:50:30;15.10;50.31
69335;SHT31;56477;52.742;15.242;2024-03-29T12:52:58;15.14;50.20
69335;SHT31;56477;52.742;15.242;2024-03-29T12:55:25;15.12;50.68
69335;SHT31;56477;52.742;15.242;2024-03-29T12:57:54;15.21;50.96
69335;SHT31;56477;52.742;15.242;2024-03-29T13:00:20;15.36;51.95
69335;SHT31;56477;52.742;15.242;2024-03-29T13:02:46;15.58;50.47
69335;SHT31;56477;52.742;15.242;2024-03-29T13:05:12;15.89;49.84
69335;SHT31;56477;52.742;15.242;2024-03-29T13:07:38;16.21;49.34
69335;SHT31;56477;52.742;15.242;2024-03-29T13:10:04;16.50;48.44
69335;SHT31;56477;52.742;15.242;2024-03-29T13:12:42;16.54;48.80
69335;SHT31;56477;52.742;15.242;2024-03-29T13:17:44;17.16;47.87
69335;SHT31;56477;52.742;15.242;2024-03-29T13:20:11;17.61;47.06
69335;SHT31;56477;52.742;15.242;2024-03-29T13:22:37;18.12;46.12
69335;SHT31;56477;52.742;15.242;2024-03-29T13:25:04;17.81;46.82
69335;SHT31;56477;52.742;15.242;2024-03-29T13:27:31;17.40;46.19
69335;SHT31;56477;52.742;15.242;2024-03-29T13:29:57;17.19;47.03
69335;SHT31;56477;52.742;15.242;2024-03-29T13:32:22;17.10;46.55
69335;SHT31;56477;52.742;15.242;2024-03-29T13:34:48;16.92;47.00
69335;SHT31;56477;52.742;15.242;2024-03-29T13:37:14;16.91;47.61
69335;SHT31;56477;52.742;15.242;2024-03-29T13:39:40;16.92;47.64
69335;SHT31;56477;52.742;15.242;2024-03-29T13:42:06;16.92;48.08
69335;SHT31;56477;52.742;15.242;2024-03-29T13:44:31;16.95;48.14
69335;SHT31;56477;52.742;15.242;2024-03-29T13:47:00;16.98;48.00
69335;SHT31;56477;52.742;15.242;2024-03-29T13:49:30;16.95;48.21
69335;SHT31;56477;52.742;15.242;2024-03-29T13:51:56;17.02;48.33
69335;SHT31;56477;52.742;15.242;2024-03-29T13:54:23;16.82;47.97
69335;SHT31;56477;52.742;15.242;2024-03-29T13:56:49;16.73;48.40
69335;SHT31;56477;52.742;15.242;2024-03-29T13:59:15;16.65;48.26
69335;SHT31;56477;52.742;15.242;2024-03-29T14:01:41;16.58;48.26
69335;SHT31;56477;52.742;15.242;2024-03-29T14:04:07;16.71;48.50
69335;SHT31;56477;52.742;15.242;2024-03-29T14:06:33;16.78;48.57
69335;SHT31;56477;52.742;15.242;2024-03-29T14:08:58;16.88;48.05
69335;SHT31;56477;52.742;15.242;2024-03-29T14:11:24;17.00;47.25
69335;SHT31;56477;52.742;15.242;2024-03-29T14:13:50;17.08;46.11
69335;SHT31;56477;52.742;15.242;2024-03-29T14:16:22;17.02;46.15
69335;SHT31;56477;52.742;15.242;2024-03-29T14:18:48;16.89;46.48
69335;SHT31;56477;52.742;15.242;2024-03-29T14:21:14;17.06;45.94
69335;SHT31;56477;52.742;15.242;2024-03-29T14:23:39;17.08;46.82
69335;SHT31;56477;52.742;15.242;2024-03-29T14:26:06;16.85;45.93
69335;SHT31;56477;52.742;15.242;2024-03-29T14:28:32;16.76;46.58
69335;SHT31;56477;52.742;15.242;2024-03-29T14:30:58;16.60;45.75
69335;SHT31;56477;52.742;15.242;2024-03-29T14:33:23;16.60;46.07
69335;SHT31;56477;52.742;15.242;2024-03-29T14:35:50;16.57;46.32
69335;SHT31;56477;52.742;15.242;2024-03-29T14:38:15;16.58;46.75
69335;SHT31;56477;52.742;15.242;2024-03-29T14:40:42;16.64;45.93
69335;SHT31;56477;52.742;15.242;2024-03-29T14:43:07;16.72;46.58
69335;SHT31;56477;52.742;15.242;2024-03-29T14:45:34;16.72;45.84
69335;SHT31;56477;52.742;15.242;2024-03-29T14:47:59;16.71;45.87
69335;SHT31;56477;52.742;15.242;2024-03-29T14:50:25;16.67;46.32
69335;SHT31;56477;52.742;15.242;2024-03-29T14:52:51;16.64;47.08
69335;SHT31;56477;52.742;15.242;2024-03-29T14:55:17;16.64;46.74
69335;SHT31;56477;52.742;15.242;2024-03-29T14:57:43;16.64;46.85
69335;SHT31;56477;52.742;15.242;2024-03-29T15:00:10;16.58;46.70
69335;SHT31;56477;52.742;15.242;2024-03-29T15:02:36;16.61;46.80
69335;SHT31;56477;52.742;15.242;2024-03-29T15:05:02;16.62;46.94
69335;SHT31;56477;52.742;15.242;2024-03-29T15:07:31;16.64;46.54
69335;SHT31;56477;52.742;15.242;2024-03-29T15:09:58;16.76;46.67
69335;SHT31;56477;52.742;15.242;2024-03-29T15:12:24;16.91;47.03
69335;SHT31;56477;52.742;15.242;2024-03-29T15:14:50;16.86;47.55
69335;SHT31;56477;52.742;15.242;2024-03-29T15:17:15;16.79;48.48
69335;SHT31;56477;52.742;15.242;2024-03-29T15:19:45;16.54;49.05
69335;SHT31;56477;52.742;15.242;2024-03-29T15:22:11;16.55;49.45
69335;SHT31;56477;52.742;15.242;2024-03-29T15:24:38;16.55;49.81
69335;SHT31;56477;52.742;15.242;2024-03-29T15:27:04;16.42;49.84